Terminal Aerodrome Forecast
Issued by NWS Mobile, AL

Home | Current Version | Previous Version | Text Only | Print | Product List | Glossary On
Versions: 1 2 3 4 5 6 7 8 9 10 11 12 13 14 15 16 17 18 19 20 21 22 23 24 25 26 27 28 29 30 31 32 33 34 35 36
000
FTUS44 KMOB 030927 AAC
TAFMOB
TAF AMD
KMOB 030927Z 0309/0406 00000KT 3/4SM BR OVC003
      TEMPO 0309/0313 1/4SM FG VV002
     FM031300 34007KT 6SM BR VCTS FEW005 SCT009CB OVC015
     FM031700 35008KT P6SM VCSH BKN040
     FM040000 35008KT P6SM BKN150=

USA.gov is the U.S. government's official web portal to all federal, state and local government web resources and services.